createdAt,value
2019-02-05T00:00:45.321Z,73.50
2019-02-05T00:03:15.627Z,73.70
2019-02-05T00:05:44.435Z,73.06
2019-02-05T00:08:13.836Z,73.52
2019-02-05T00:10:42.732Z,72.88
2019-02-05T00:13:11.845Z,73.33
2019-02-05T00:15:40.349Z,73.68
2019-02-05T00:18:08.789Z,72.75
2019-02-05T00:20:37.294Z,73.68
2019-02-05T00:23:05.856Z,73.11
2019-02-05T00:25:34.336Z,73.47
2019-02-05T00:28:02.827Z,73.31
2019-02-05T00:30:31.286Z,73.17
2019-02-05T00:32:59.739Z,73.15
2019-02-05T00:35:28.193Z,73.72
2019-02-05T00:37:56.623Z,74.13
2019-02-05T00:40:25.231Z,74.61
2019-02-05T00:42:53.682Z,74.80
2019-02-05T00:45:22.431Z,74.47
2019-02-05T00:47:51.624Z,74.06
2019-02-05T00:50:20.311Z,74.44
2019-02-05T00:52:48.866Z,75.50
2019-02-05T00:55:19.377Z,75.46
2019-02-05T00:57:48.268Z,74.65
2019-02-05T01:00:23.040Z,74.06
2019-02-05T01:02:52.089Z,74.66
2019-02-05T01:05:20.730Z,74.78
2019-02-05T01:07:50.423Z,74.25
2019-02-05T01:10:19.360Z,74.26
2019-02-05T01:12:47.858Z,73.69
2019-02-05T01:15:20.789Z,73.86
2019-02-05T01:17:49.822Z,73.80
2019-02-05T01:20:24.346Z,73.48
2019-02-05T01:22:53.298Z,74.06
2019-02-05T01:25:23.187Z,73.97
2019-02-05T01:27:52.065Z,73.43
2019-02-05T01:30:25.916Z,73.91
2019-02-05T01:32:54.639Z,74.00
2019-02-05T01:35:23.264Z,74.31
2019-02-05T01:37:52.155Z,74.44
2019-02-05T01:40:23.786Z,74.49
2019-02-05T01:42:52.356Z,74.50
2019-02-05T01:45:22.286Z,74.91
2019-02-05T01:47:50.894Z,74.71
2019-02-05T01:50:24.506Z,74.96
2019-02-05T01:52:53.090Z,74.95
2019-02-05T01:55:22.556Z,75.51
2019-02-05T01:57:51.588Z,75.50
2019-02-05T02:00:22.782Z,75.58
2019-02-05T02:02:51.493Z,75.40
2019-02-05T02:05:20.113Z,75.35
2019-02-05T02:07:48.685Z,75.57
2019-02-05T02:10:20.622Z,75.65
2019-02-05T02:12:49.157Z,75.26
2019-02-05T02:15:18.525Z,76.31
2019-02-05T02:17:47.223Z,75.94
2019-02-05T02:20:20.806Z,76.22
2019-02-05T02:22:49.337Z,76.69
2019-02-05T02:25:18.303Z,75.95
2019-02-05T02:27:49.786Z,76.40
2019-02-05T02:30:27.449Z,77.16
2019-02-05T02:32:55.861Z,76.78
2019-02-05T02:35:24.588Z,77.37
2019-02-05T02:37:53.375Z,77.27
2019-02-05T02:40:21.805Z,77.30
2019-02-05T02:42:52.186Z,78.03
2019-02-05T02:45:20.803Z,77.77
2019-02-05T02:47:49.295Z,78.58
2019-02-05T02:50:23.596Z,78.34
2019-02-05T02:52:53.419Z,78.58
2019-02-05T02:55:21.983Z,78.62
2019-02-05T02:57:50.400Z,79.08
2019-02-05T03:00:23.479Z,78.76
2019-02-05T03:02:52.543Z,78.77
2019-02-05T03:05:23.230Z,78.91
2019-02-05T03:07:51.906Z,79.02
2019-02-05T03:10:25.858Z,79.59
2019-02-05T03:12:55.066Z,80.34
2019-02-05T03:15:23.536Z,80.50
2019-02-05T03:17:52.295Z,80.93
2019-02-05T03:20:20.870Z,80.71
2019-02-05T03:22:50.163Z,81.41
2019-02-05T03:25:21.347Z,81.67
2019-02-05T03:27:53.564Z,81.84
2019-02-05T03:30:22.430Z,82.38
2019-02-05T03:32:52.081Z,82.01
2019-02-05T03:35:21.148Z,82.27
2019-02-05T03:37:50.234Z,83.09
2019-02-05T03:40:31.217Z,83.17
2019-02-05T03:43:00.553Z,83.95
2019-02-05T03:45:34.909Z,84.43
2019-02-05T03:48:04.690Z,85.44
2019-02-05T03:50:36.367Z,85.21
2019-02-05T03:53:10.904Z,85.48
2019-02-05T03:55:57.162Z,84.99
2019-02-05T03:58:28.672Z,85.59
2019-02-05T04:01:03.016Z,85.88
2019-02-05T04:03:43.230Z,86.81
2019-02-05T04:06:14.731Z,86.59
2019-02-05T04:08:55.088Z,86.77
2019-02-05T04:11:29.778Z,87.04
2019-02-05T04:14:07.297Z,86.63
2019-02-05T04:16:59.742Z,87.35
2019-02-05T04:19:34.257Z,88.16
2019-02-05T04:22:11.426Z,88.48
2019-02-05T04:24:48.823Z,88.68
2019-02-05T04:27:29.149Z,89.07
2019-02-05T04:30:20.830Z,89.31
2019-02-05T04:33:04.347Z,89.91
2019-02-05T04:35:48.306Z,89.75
2019-02-05T04:38:39.078Z,89.60
2019-02-05T04:41:29.864Z,89.83
2019-02-05T04:44:16.120Z,90.26
2019-02-05T04:46:59.473Z,90.06
2019-02-05T04:49:42.891Z,90.38
2019-02-05T04:52:20.259Z,90.92
2019-02-05T04:55:08.394Z,90.46
2019-02-05T04:58:14.499Z,90.88
2019-02-05T05:00:55.200Z,90.55
2019-02-05T05:03:38.803Z,91.20
2019-02-05T05:06:32.764Z,91.02
2019-02-05T05:09:20.564Z,91.01
2019-02-05T05:11:49.561Z,90.94
2019-02-05T05:14:17.996Z,91.52
2019-02-05T05:16:46.459Z,91.11
2019-02-05T05:19:15.329Z,90.98
2019-02-05T05:21:44.098Z,91.20
2019-02-05T05:24:12.707Z,91.14
2019-02-05T05:26:41.605Z,90.92
2019-02-05T05:29:10.012Z,91.02
2019-02-05T05:31:38.480Z,91.50
2019-02-05T05:34:07.065Z,91.81
2019-02-05T05:36:35.529Z,91.75
2019-02-05T05:39:05.719Z,91.96
2019-02-05T05:41:34.262Z,92.22
2019-02-05T05:44:02.949Z,92.42
2019-02-05T05:46:31.410Z,92.38
2019-02-05T05:48:59.869Z,91.87
2019-02-05T05:51:28.291Z,91.93
2019-02-05T05:53:57.106Z,92.00
2019-02-05T05:56:25.535Z,91.90
2019-02-05T05:58:54.012Z,92.36
2019-02-05T06:01:22.488Z,91.87
2019-02-05T06:03:50.950Z,92.26
2019-02-05T06:06:19.391Z,92.18
2019-02-05T06:08:47.877Z,91.94
2019-02-05T06:11:16.712Z,92.13
2019-02-05T06:13:45.254Z,92.32
2019-02-05T06:16:13.753Z,92.33
2019-02-05T06:18:42.187Z,92.26
2019-02-05T06:21:13.572Z,92.39
2019-02-05T06:23:41.970Z,92.79
2019-02-05T06:26:10.682Z,93.15
2019-02-05T06:28:39.748Z,93.68
2019-02-05T06:31:08.197Z,93.82
2019-02-05T06:33:36.696Z,93.75
2019-02-05T06:36:05.219Z,94.36
2019-02-05T06:38:33.659Z,94.40
2019-02-05T06:41:02.269Z,95.67
2019-02-05T06:43:30.739Z,95.28
2019-02-05T06:45:59.563Z,96.78
2019-02-05T06:48:29.023Z,96.79
2019-02-05T06:51:21.693Z,96.26
2019-02-05T06:53:49.079Z,96.28
2019-02-05T06:56:18.328Z,97.25
2019-02-05T06:58:46.864Z,97.58
2019-02-05T07:01:15.548Z,97.92
2019-02-05T07:03:44.862Z,98.00
2019-02-05T07:06:13.470Z,97.64
2019-02-05T07:08:42.649Z,98.24
2019-02-05T07:11:11.538Z,98.22
2019-02-05T07:13:40.600Z,98.61
2019-02-05T07:16:09.140Z,98.51
2019-02-05T07:18:37.783Z,99.10
2019-02-05T07:21:06.344Z,99.29
2019-02-05T07:23:35.062Z,99.48
2019-02-05T07:26:03.836Z,99.46
2019-02-05T07:28:32.444Z,99.94
2019-02-05T07:31:01.395Z,99.81
2019-02-05T07:33:30.030Z,99.89
2019-02-05T07:35:58.594Z,100.00
2019-02-05T07:38:27.160Z,100.00
2019-02-05T07:40:55.775Z,100.00
2019-02-05T07:43:24.350Z,100.00
2019-02-05T07:45:52.951Z,100.00
2019-02-05T07:48:21.428Z,100.00
2019-02-05T07:50:51.067Z,100.00
2019-02-05T07:53:19.554Z,100.00
2019-02-05T07:55:48.085Z,100.00
2019-02-05T07:58:16.564Z,100.00
2019-02-05T08:00:45.419Z,100.00
2019-02-05T08:03:13.976Z,100.00
2019-02-05T08:05:42.437Z,100.00
2019-02-05T08:08:11.529Z,100.00
2019-02-05T08:10:40.186Z,100.00
2019-02-05T08:13:09.154Z,100.00
2019-02-05T08:15:37.846Z,100.00
2019-02-05T08:18:06.941Z,100.00
2019-02-05T08:20:35.630Z,100.00
2019-02-05T08:23:04.713Z,100.00
2019-02-05T08:25:33.204Z,100.00
2019-02-05T08:28:02.227Z,100.00
2019-02-05T08:30:36.318Z,100.00
2019-02-05T08:33:05.035Z,100.00
2019-02-05T08:35:33.612Z,100.00
2019-02-05T08:38:02.197Z,100.00
2019-02-05T08:40:30.731Z,100.00
2019-02-05T08:42:59.241Z,100.00
2019-02-05T08:45:30.788Z,100.00
2019-02-05T08:47:59.326Z,100.00
2019-02-05T08:50:29.635Z,100.00
2019-02-05T08:52:58.178Z,100.00
2019-02-05T08:55:26.885Z,100.00
2019-02-05T08:57:58.377Z,100.00
2019-02-05T09:00:35.570Z,100.00
2019-02-05T09:03:05.014Z,100.00
2019-02-05T09:05:33.949Z,100.00
2019-02-05T09:08:02.547Z,100.00
2019-02-05T09:10:33.654Z,100.00
2019-02-05T09:13:02.377Z,100.00
2019-02-05T09:15:31.541Z,100.00
2019-02-05T09:18:01.235Z,100.00
2019-02-05T09:20:29.868Z,100.00
2019-02-05T09:22:58.608Z,100.00
2019-02-05T09:25:27.307Z,100.00
2019-02-05T09:27:55.899Z,100.00
2019-02-05T09:30:30.351Z,100.00
2019-02-05T09:33:01.673Z,100.00
2019-02-05T09:35:30.316Z,100.00
2019-02-05T09:37:58.814Z,100.00
2019-02-05T09:40:32.504Z,100.00
2019-02-05T09:43:01.056Z,100.00
2019-02-05T09:45:31.308Z,100.00
2019-02-05T09:48:00.879Z,100.00
2019-02-05T09:50:30.929Z,100.00
2019-02-05T09:53:00.367Z,100.00
2019-02-05T09:55:28.999Z,100.00
2019-02-05T09:57:57.530Z,100.00
2019-02-05T10:00:37.857Z,100.00
2019-02-05T10:03:07.773Z,100.00
2019-02-05T10:05:37.416Z,100.00
2019-02-05T10:08:06.552Z,100.00
2019-02-05T10:10:35.163Z,100.00
2019-02-05T10:13:04.041Z,100.00
2019-02-05T10:15:34.894Z,100.00
2019-02-05T10:18:04.829Z,100.00
2019-02-05T10:20:33.345Z,100.00
2019-02-05T10:23:03.334Z,100.00
2019-02-05T10:25:32.401Z,100.00
2019-02-05T10:28:00.975Z,100.00
2019-02-05T10:30:32.196Z,100.00
2019-02-05T10:33:02.969Z,100.00
2019-02-05T10:35:31.432Z,100.00
2019-02-05T10:38:00.090Z,100.00
2019-02-05T10:40:28.741Z,100.00
2019-02-05T10:42:57.450Z,100.00
2019-02-05T10:45:27.698Z,100.00
2019-02-05T10:47:56.238Z,100.00
2019-02-05T10:50:25.404Z,100.00
2019-02-05T10:52:54.002Z,100.00
2019-02-05T10:55:23.671Z,100.00
2019-02-05T10:57:54.521Z,99.82
2019-02-05T11:00:31.444Z,98.99
2019-02-05T11:03:02.387Z,99.17
2019-02-05T11:05:32.531Z,99.33
2019-02-05T11:08:01.017Z,98.49
2019-02-05T11:10:29.638Z,98.49
2019-02-05T11:12:58.167Z,98.07
2019-02-05T11:15:29.535Z,98.33
2019-02-05T11:17:58.532Z,98.37
2019-02-05T11:20:28.550Z,98.46
2019-02-05T11:22:57.195Z,98.49
2019-02-05T11:25:26.232Z,98.90
2019-02-05T11:27:54.769Z,98.87
2019-02-05T11:30:35.319Z,99.10
2019-02-05T11:33:04.385Z,99.05
2019-02-05T11:35:33.392Z,98.54
2019-02-05T11:38:02.027Z,98.70
2019-02-05T11:40:39.358Z,99.27
2019-02-05T11:43:07.983Z,99.29
2019-02-05T11:45:37.004Z,99.12
2019-02-05T11:48:08.509Z,99.19
2019-02-05T11:50:37.578Z,99.27
2019-02-05T11:53:06.123Z,99.64
2019-02-05T11:55:35.546Z,99.21
2019-02-05T11:58:04.875Z,99.05
2019-02-05T12:00:44.584Z,99.22
2019-02-05T12:03:13.601Z,99.04
2019-02-05T12:05:42.106Z,99.30
2019-02-05T12:08:10.687Z,99.33
2019-02-05T12:10:39.376Z,99.65
2019-02-05T12:13:07.941Z,99.74
2019-02-05T12:15:36.480Z,100.00
2019-02-05T12:18:05.315Z,100.00
2019-02-05T12:20:33.834Z,100.00
2019-02-05T12:23:02.870Z,100.00
2019-02-05T12:25:31.463Z,100.00
2019-02-05T12:27:59.925Z,100.00
2019-02-05T12:30:45.009Z,100.00
2019-02-05T12:33:10.319Z,100.00
2019-02-05T12:35:38.973Z,100.00
2019-02-05T12:38:07.810Z,100.00
2019-02-05T12:40:36.596Z,100.00
2019-02-05T12:43:05.690Z,100.00
2019-02-05T12:45:39.172Z,100.00
2019-02-05T12:48:08.069Z,100.00
2019-02-05T12:50:38.881Z,100.00
2019-02-05T12:53:07.844Z,100.00
2019-02-05T12:55:37.263Z,100.00
2019-02-05T12:58:06.702Z,100.00
2019-02-05T13:00:55.887Z,100.00
2019-02-05T13:03:14.551Z,100.00
2019-02-05T13:05:44.643Z,100.00
2019-02-05T13:08:13.300Z,100.00
2019-02-05T13:10:44.625Z,100.00
2019-02-05T13:13:13.363Z,100.00
2019-02-05T13:15:42.262Z,100.00
2019-02-05T13:18:10.767Z,100.00
2019-02-05T13:20:39.977Z,100.00
2019-02-05T13:23:09.019Z,100.00
2019-02-05T13:25:37.781Z,100.00
2019-02-05T13:28:08.804Z,100.00
2019-02-05T13:30:38.754Z,100.00
2019-02-05T13:33:09.234Z,100.00
2019-02-05T13:35:38.280Z,100.00
2019-02-05T13:38:07.133Z,100.00
2019-02-05T13:40:35.708Z,100.00
2019-02-05T13:43:05.016Z,100.00
2019-02-05T13:45:36.034Z,100.00
2019-02-05T13:48:06.288Z,100.00
2019-02-05T13:50:34.879Z,100.00
2019-02-05T13:53:03.503Z,100.00
2019-02-05T13:55:34.868Z,100.00
2019-02-05T13:58:04.197Z,100.00
2019-02-05T14:00:35.392Z,100.00
2019-02-05T14:03:04.405Z,100.00
2019-02-05T14:05:32.954Z,100.00
2019-02-05T14:08:01.504Z,100.00
2019-02-05T14:10:32.543Z,100.00
2019-02-05T14:13:01.096Z,100.00
2019-02-05T14:15:32.378Z,100.00
2019-02-05T14:18:00.928Z,100.00
2019-02-05T14:20:29.456Z,100.00
2019-02-05T14:22:58.948Z,100.00
2019-02-05T14:25:27.606Z,100.00
2019-02-05T14:27:56.257Z,100.00
2019-02-05T14:30:30.219Z,100.00
2019-02-05T14:32:58.794Z,100.00
2019-02-05T14:35:27.789Z,100.00
2019-02-05T14:37:56.397Z,100.00
2019-02-05T14:40:26.498Z,100.00
2019-02-05T14:42:55.648Z,100.00
2019-02-05T14:45:24.743Z,100.00
2019-02-05T14:47:53.727Z,100.00
2019-02-05T14:50:42.795Z,100.00
2019-02-05T14:53:12.096Z,100.00
2019-02-05T14:55:40.659Z,100.00
2019-02-05T14:58:10.952Z,100.00
2019-02-05T15:00:39.932Z,100.00
2019-02-05T15:03:10.871Z,100.00
2019-02-05T15:05:40.475Z,100.00
2019-02-05T15:08:09.779Z,100.00
2019-02-05T15:10:38.358Z,100.00
2019-02-05T15:13:07.759Z,100.00
2019-02-05T15:15:36.506Z,100.00
2019-02-05T15:18:06.563Z,100.00
2019-02-05T15:20:41.148Z,100.00
2019-02-05T15:23:10.765Z,100.00
2019-02-05T15:25:39.243Z,100.00
2019-02-05T15:28:08.383Z,100.00
2019-02-05T15:30:39.275Z,100.00
2019-02-05T15:33:28.189Z,100.00
2019-02-05T15:36:01.078Z,100.00
2019-02-05T15:38:30.151Z,100.00
2019-02-05T15:40:59.545Z,100.00
2019-02-05T15:43:28.109Z,100.00
2019-02-05T15:45:56.543Z,100.00
2019-02-05T15:48:25.025Z,100.00
2019-02-05T15:50:53.534Z,100.00
2019-02-05T15:53:22.514Z,100.00
2019-02-05T15:55:51.140Z,100.00
2019-02-05T15:58:19.665Z,100.00
2019-02-05T16:00:48.264Z,100.00
2019-02-05T16:03:16.829Z,100.00
2019-02-05T16:05:45.297Z,100.00
2019-02-05T16:08:13.812Z,100.00
2019-02-05T16:10:42.493Z,100.00
2019-02-05T16:13:10.974Z,100.00
2019-02-05T16:15:39.512Z,100.00
2019-02-05T16:18:09.195Z,100.00
2019-02-05T16:20:37.850Z,100.00
2019-02-05T16:23:06.459Z,100.00
2019-02-05T16:25:35.410Z,100.00
2019-02-05T16:28:04.638Z,100.00
2019-02-05T16:30:33.778Z,100.00
2019-02-05T16:33:02.222Z,100.00
2019-02-05T16:35:30.972Z,100.00
2019-02-05T16:37:59.904Z,100.00
2019-02-05T16:40:39.398Z,100.00
2019-02-05T16:43:07.988Z,100.00
2019-02-05T16:45:36.615Z,100.00
2019-02-05T16:48:05.745Z,100.00
2019-02-05T16:50:39.956Z,100.00
2019-02-05T16:53:09.593Z,100.00
2019-02-05T16:55:38.585Z,100.00
2019-02-05T16:58:08.135Z,100.00
2019-02-05T17:00:38.909Z,100.00
2019-02-05T17:03:08.105Z,100.00
2019-02-05T17:05:42.052Z,100.00
2019-02-05T17:08:11.166Z,100.00
2019-02-05T17:10:39.914Z,100.00
2019-02-05T17:13:11.453Z,100.00
2019-02-05T17:15:38.857Z,100.00
2019-02-05T17:18:07.545Z,100.00
2019-02-05T17:20:38.156Z,100.00
2019-02-05T17:23:07.540Z,100.00
2019-02-05T17:25:36.480Z,100.00
2019-02-05T17:28:07.415Z,100.00
2019-02-05T17:30:39.065Z,100.00
2019-02-05T17:33:07.937Z,100.00
2019-02-05T17:35:36.544Z,100.00
2019-02-05T17:38:07.761Z,100.00
2019-02-05T17:40:36.775Z,100.00
2019-02-05T17:43:06.442Z,100.00
2019-02-05T17:45:37.319Z,100.00
2019-02-05T17:48:09.024Z,100.00
2019-02-05T17:50:37.633Z,100.00
2019-02-05T17:53:06.961Z,100.00
2019-02-05T17:55:35.706Z,100.00
2019-02-05T17:58:04.903Z,100.00
2019-02-05T18:00:36.941Z,100.00
2019-02-05T18:03:06.457Z,100.00
2019-02-05T18:05:35.667Z,100.00
2019-02-05T18:08:05.293Z,100.00
2019-02-05T18:10:33.850Z,100.00
2019-02-05T18:13:02.489Z,100.00
2019-02-05T18:15:36.615Z,100.00
2019-02-05T18:18:07.124Z,100.00
2019-02-05T18:20:39.074Z,100.00
2019-02-05T18:23:09.106Z,100.00
2019-02-05T18:25:37.701Z,100.00
2019-02-05T18:28:06.591Z,100.00
2019-02-05T18:30:39.963Z,100.00
2019-02-05T18:33:08.724Z,100.00
2019-02-05T18:35:39.083Z,100.00
2019-02-05T18:38:10.724Z,100.00
2019-02-05T18:40:39.291Z,100.00
2019-02-05T18:43:08.005Z,100.00
2019-02-05T18:45:36.793Z,100.00
2019-02-05T18:48:05.849Z,100.00
2019-02-05T18:50:34.844Z,100.00
2019-02-05T18:53:03.665Z,100.00
2019-02-05T18:55:35.754Z,100.00
2019-02-05T18:58:09.550Z,100.00
2019-02-05T19:00:41.592Z,100.00
2019-02-05T19:03:15.392Z,100.00
2019-02-05T19:05:40.705Z,100.00
2019-02-05T19:08:09.681Z,100.00
2019-02-05T19:10:38.465Z,100.00
2019-02-05T19:13:07.167Z,100.00
2019-02-05T19:15:37.954Z,100.00
2019-02-05T19:18:08.258Z,100.00
2019-02-05T19:20:37.265Z,100.00
2019-02-05T19:23:08.485Z,100.00
2019-02-05T19:25:41.680Z,100.00
2019-02-05T19:28:11.984Z,100.00
2019-02-05T19:30:42.598Z,100.00
2019-02-05T19:33:11.140Z,100.00
2019-02-05T19:35:39.722Z,100.00
2019-02-05T19:38:08.408Z,100.00
2019-02-05T19:40:41.383Z,100.00
2019-02-05T19:43:09.975Z,100.00
2019-02-05T19:45:40.361Z,100.00
2019-02-05T19:48:10.484Z,100.00
2019-02-05T19:50:39.225Z,100.00
2019-02-05T19:53:07.878Z,100.00
2019-02-05T19:55:36.381Z,100.00
2019-02-05T19:58:05.158Z,100.00
2019-02-05T20:00:33.656Z,100.00
2019-02-05T20:03:02.239Z,100.00
2019-02-05T20:05:31.151Z,100.00
2019-02-05T20:09:04.518Z,100.00
2019-02-05T20:10:49.597Z,100.00
2019-02-05T20:13:18.122Z,100.00
2019-02-05T20:15:46.654Z,100.00
2019-02-05T20:18:15.862Z,100.00
2019-02-05T20:20:44.480Z,100.00
2019-02-05T20:23:13.019Z,100.00
2019-02-05T20:25:42.189Z,100.00
2019-02-05T20:28:11.466Z,100.00
2019-02-05T20:30:39.902Z,100.00
2019-02-05T20:33:08.547Z,100.00
2019-02-05T20:35:37.166Z,100.00
2019-02-05T20:38:06.150Z,100.00
2019-02-05T20:40:34.706Z,100.00
2019-02-05T20:43:03.262Z,100.00
2019-02-05T20:45:31.745Z,100.00
2019-02-05T20:48:00.772Z,100.00
2019-02-05T20:50:29.553Z,100.00
2019-02-05T20:52:58.504Z,100.00
2019-02-05T20:55:26.985Z,100.00
2019-02-05T20:57:55.975Z,100.00
2019-02-05T21:00:32.741Z,100.00
2019-02-05T21:03:01.209Z,100.00
2019-02-05T21:05:29.943Z,100.00
2019-02-05T21:08:01.755Z,100.00
2019-02-05T21:10:32.173Z,100.00
2019-02-05T21:13:01.636Z,100.00
2019-02-05T21:15:30.360Z,100.00
2019-02-05T21:17:59.072Z,100.00
2019-02-05T21:20:33.545Z,100.00
2019-02-05T21:23:01.416Z,100.00
2019-02-05T21:25:30.140Z,100.00
2019-02-05T21:27:58.814Z,100.00
2019-02-05T21:30:27.743Z,100.00
2019-02-05T21:32:56.221Z,100.00
2019-02-05T21:35:24.753Z,100.00
2019-02-05T21:37:57.794Z,100.00
2019-02-05T21:40:27.466Z,100.00
2019-02-05T21:42:56.167Z,100.00
2019-02-05T21:45:32.183Z,100.00
2019-02-05T21:48:00.771Z,100.00
2019-02-05T21:50:29.544Z,100.00
2019-02-05T21:52:59.098Z,100.00
2019-02-05T21:55:28.407Z,100.00
2019-02-05T21:57:57.743Z,100.00
2019-02-05T22:00:34.454Z,100.00
2019-02-05T22:03:03.389Z,100.00
2019-02-05T22:05:32.985Z,100.00
2019-02-05T22:08:01.851Z,100.00
2019-02-05T22:10:30.394Z,100.00
2019-02-05T22:12:58.929Z,100.00
2019-02-05T22:15:27.911Z,100.00
2019-02-05T22:17:56.398Z,100.00
2019-02-05T22:20:26.992Z,100.00
2019-02-05T22:22:57.435Z,100.00
2019-02-05T22:25:31.160Z,100.00
2019-02-05T22:27:59.587Z,100.00
2019-02-05T22:30:38.661Z,100.00
2019-02-05T22:33:08.939Z,100.00
2019-02-05T22:35:37.524Z,100.00
2019-02-05T22:38:06.422Z,100.00
2019-02-05T22:40:34.920Z,100.00
2019-02-05T22:43:04.598Z,100.00
2019-02-05T22:45:33.878Z,100.00
2019-02-05T22:48:02.319Z,100.00
2019-02-05T22:50:35.888Z,100.00
2019-02-05T22:53:06.733Z,100.00
2019-02-05T22:55:35.334Z,100.00
2019-02-05T22:58:04.362Z,100.00
2019-02-05T23:00:43.073Z,100.00
2019-02-05T23:03:11.969Z,100.00
2019-02-05T23:06:00.758Z,100.00
2019-02-05T23:08:29.242Z,100.00
2019-02-05T23:11:06.454Z,100.00
2019-02-05T23:13:35.318Z,100.00
2019-02-05T23:16:03.824Z,100.00
2019-02-05T23:18:32.301Z,100.00
2019-02-05T23:21:00.843Z,100.00
2019-02-05T23:23:29.269Z,100.00
2019-02-05T23:25:57.814Z,100.00
2019-02-05T23:28:26.323Z,100.00
2019-02-05T23:30:55.118Z,100.00
2019-02-05T23:33:23.653Z,100.00
2019-02-05T23:35:52.442Z,100.00
2019-02-05T23:38:21.437Z,100.00
2019-02-05T23:40:49.919Z,100.00
2019-02-05T23:43:18.423Z,100.00
2019-02-05T23:46:00.461Z,100.00
2019-02-05T23:48:17.389Z,100.00
2019-02-05T23:50:45.926Z,100.00
2019-02-05T23:53:14.327Z,100.00
2019-02-05T23:55:42.760Z,100.00
2019-02-05T23:58:11.263Z,100.00
